Terminal Aerodrome Forecast
Issued by NWS Portland, OR

Home | Current Version | Previous Version | Text Only | Print | Product List | Glossary On
Versions: 1 2 3 4 5 6 7 8 9 10 11 12 13 14 15 16 17 18 19 20 21 22 23 24 25
000
FTUS46 KPQR 301601 AAB
TAFAST
TAF AMD
KAST 301601Z 3016/0112 VRB03KT 3SM BR OVC004
     FM301800 VRB03KT 5SM BR BKN005
     FM302100 21010KT P6SM -SHRA BKN015 OVC035
     FM302300 18007KT P6SM -SHRA BKN025 OVC040
     FM010600 16004KT P6SM -SHRA BKN015 OVC030=

USA.gov is the U.S. government's official web portal to all federal, state and local government web resources and services.